Time;durP1;ratioP1;P1;durP2;ratioP2;P2;SDS_P1;SDS_P2;PMS_P1;PMS_P2;Temp;Humidity;BMP_temperature;BMP_pressure;BME280_temperature;BME280_humidity;BME280_pressure;Samples;Min_cycle;Max_cycle;Signal;HPM_P1;HPM_P2
2023/03/13 00:00:31;;;;;;;29.00;4.65;;;10.20;83.50;;;;;;9179256;19;20014;-63
2023/03/13 00:03:36;;;;;;;30.65;4.53;;;10.20;83.50;;;;;;9178124;19;20486;-63
2023/03/13 00:06:41;;;;;;;29.55;4.25;;;10.20;83.50;;;;;;9177092;19;20010;-63
2023/03/13 00:09:50;;;;;;;29.83;4.47;;;10.20;83.50;;;;;;9175425;19;20014;-63
2023/03/13 00:12:54;;;;;;;27.40;5.07;;;10.20;83.50;;;;;;9170915;19;20011;-63
2023/03/13 00:16:01;;;;;;;29.25;4.75;;;10.20;83.40;;;;;;9178158;19;20015;-63
2023/03/13 00:19:06;;;;;;;37.40;4.97;;;10.20;83.40;;;;;;9178385;19;20082;-63
2023/03/13 00:22:12;;;;;;;29.60;4.50;;;10.20;83.40;;;;;;9177859;19;20014;-63
2023/03/13 00:25:18;;;;;;;;;;;10.20;83.50;;;;;;9179041;19;20388;-63
2023/03/13 00:28:24;;;;;;;27.02;4.07;;;10.20;83.40;;;;;;9178401;19;19914;-63
2023/03/13 00:31:30;;;;;;;31.02;5.18;;;10.20;83.40;;;;;;9176699;19;20044;-63
2023/03/13 00:34:37;;;;;;;28.00;4.95;;;10.20;83.50;;;;;;9173629;19;20014;-63
2023/03/13 00:37:42;;;;;;;21.73;3.92;;;10.20;83.50;;;;;;9176238;19;20010;-63
2023/03/13 00:40:50;;;;;;;26.23;4.43;;;10.20;83.60;;;;;;9177482;19;20018;-63
2023/03/13 00:43:55;;;;;;;27.13;4.53;;;10.20;83.60;;;;;;9176556;19;20021;-63
2023/03/13 00:47:01;;;;;;;25.85;5.63;;;10.20;83.70;;;;;;9176541;19;20110;-62
2023/03/13 00:50:06;;;;;;;29.83;4.05;;;10.20;83.70;;;;;;9176062;19;20469;-63
2023/03/13 00:53:12;;;;;;;31.98;4.10;;;10.20;83.80;;;;;;9172806;19;20015;-63
2023/03/13 00:56:19;;;;;;;;;;;10.20;83.80;;;;;;9178735;19;20014;-63
2023/03/13 00:59:25;;;;;;;22.55;3.72;;;10.20;83.80;;;;;;9182980;19;19933;-63
2023/03/13 01:02:29;;;;;;;26.13;4.57;;;10.20;83.70;;;;;;9184163;19;20404;-63
2023/03/13 01:05:35;;;;;;;32.78;5.28;;;10.20;83.70;;;;;;9184979;19;20011;-63
2023/03/13 01:08:39;;;;;;;29.15;3.83;;;10.20;83.80;;;;;;9181047;19;20014;-63
2023/03/13 01:11:47;;;;;;;27.55;5.95;;;10.20;83.90;;;;;;9183187;19;20007;-63
2023/03/13 01:14:51;;;;;;;25.25;3.95;;;10.20;83.90;;;;;;9175565;19;20010;-63
2023/03/13 01:18:00;;;;;;;18.02;3.72;;;10.10;83.90;;;;;;9183918;19;20019;-62
2023/03/13 01:21:05;;;;;;;;;;;10.10;83.90;;;;;;9183801;19;20010;-62
2023/03/13 01:24:11;;;;;;;26.13;5.07;;;10.20;84.00;;;;;;9182365;19;19930;-63
2023/03/13 01:27:17;;;;;;;21.02;3.50;;;10.10;84.00;;;;;;9183124;19;20455;-62
2023/03/13 01:30:23;;;;;;;20.27;3.30;;;10.10;84.00;;;;;;9182201;19;20491;-63
2023/03/13 01:33:27;;;;;;;28.17;5.13;;;10.10;84.00;;;;;;9182377;19;20023;-62
2023/03/13 01:36:33;;;;;;;23.20;3.42;;;10.10;84.10;;;;;;9181851;19;20014;-62
2023/03/13 01:39:37;;;;;;;22.95;4.07;;;10.10;84.20;;;;;;9181884;19;20051;-62
2023/03/13 01:42:53;;;;;;;27.55;3.67;;;10.10;84.30;;;;;;9180202;19;20017;-62
2023/03/13 01:46:12;;;;;;;35.63;4.80;;;10.10;84.40;;;;;;9183526;19;20838;-63
2023/03/13 01:49:36;;;;;;;24.33;3.92;;;10.10;84.40;;;;;;9182101;19;20007;-63
2023/03/13 01:52:59;;;;;;;28.42;4.15;;;10.10;84.30;;;;;;9179150;19;20356;-63
2023/03/13 01:56:12;;;;;;;27.65;4.15;;;10.10;84.40;;;;;;9181569;19;20017;-62
2023/03/13 01:59:22;;;;;;;27.88;3.40;;;10.10;84.60;;;;;;9180962;19;20476;-62
2023/03/13 02:02:30;;;;;;;24.30;3.42;;;10.10;84.50;;;;;;9180194;19;20014;-62
2023/03/13 02:05:35;;;;;;;23.55;3.83;;;10.10;84.60;;;;;;9182610;19;20029;-62
2023/03/13 02:08:48;;;;;;;18.73;3.53;;;10.10;84.60;;;;;;9179642;19;20290;-62
2023/03/13 02:11:58;;;;;;;23.50;3.97;;;10.10;84.70;;;;;;9181781;19;20027;-63
2023/03/13 02:15:10;;;;;;;13.80;2.85;;;10.10;84.80;;;;;;9174442;19;20022;-62
2023/03/13 02:18:14;;;;;;;21.30;3.60;;;10.10;84.80;;;;;;9180125;19;20017;-62
2023/03/13 02:21:33;;;;;;;19.65;3.10;;;10.10;84.70;;;;;;9181523;19;20022;-62
2023/03/13 02:24:45;;;;;;;14.73;3.30;;;10.10;84.90;;;;;;9180289;19;20081;-62
2023/03/13 02:27:56;;;;;;;16.70;3.15;;;10.10;85.00;;;;;;9180826;19;20006;-62
2023/03/13 02:31:00;;;;;;;13.30;2.50;;;10.10;85.00;;;;;;9182695;19;20549;-62
2023/03/13 02:34:09;;;;;;;19.95;3.20;;;10.10;85.00;;;;;;9179264;19;20513;-62
2023/03/13 02:37:14;;;;;;;19.00;3.47;;;10.10;85.10;;;;;;9179614;19;20031;-62
2023/03/13 02:40:25;;;;;;;17.92;3.40;;;10.10;85.20;;;;;;9179281;19;20026;-62
2023/03/13 02:43:33;;;;;;;13.27;2.70;;;10.10;85.20;;;;;;9176621;19;20475;-64
2023/03/13 02:46:49;;;;;;;11.50;2.72;;;10.20;85.30;;;;;;9178953;19;20014;-62
2023/03/13 02:49:54;;;;;;;12.73;2.78;;;10.20;85.40;;;;;;9178839;19;20018;-63
2023/03/13 02:53:04;;;;;;;12.15;2.78;;;10.20;85.40;;;;;;9177400;19;20408;-63
2023/03/13 02:56:09;;;;;;;8.52;2.90;;;10.20;85.40;;;;;;9179612;19;20023;-63
2023/03/13 02:59:17;;;;;;;14.18;4.55;;;10.20;85.40;;;;;;9179885;19;20018;-63
2023/03/13 03:02:23;;;;;;;13.30;2.47;;;10.20;85.50;;;;;;9179275;19;20478;-62
2023/03/13 03:05:31;;;;;;;11.38;2.45;;;10.30;85.60;;;;;;9179489;19;20014;-62
2023/03/13 03:08:40;;;;;;;12.13;2.30;;;10.30;85.70;;;;;;9179010;19;20106;-62
2023/03/13 03:11:51;;;;;;;13.70;2.88;;;10.30;85.70;;;;;;9179095;19;20014;-63
2023/03/13 03:14:57;;;;;;;15.30;3.53;;;10.30;85.80;;;;;;9168885;19;20376;-62
2023/03/13 03:18:04;;;;;;;8.63;2.40;;;10.40;85.80;;;;;;9178966;19;20070;-63
2023/03/13 03:21:08;;;;;;;;;;;10.30;85.80;;;;;;9178140;19;20022;-63
2023/03/13 03:24:17;;;;;;;11.15;2.30;;;10.40;85.80;;;;;;9177901;19;20502;-63
2023/03/13 03:27:21;;;;;;;8.90;2.30;;;10.40;85.70;;;;;;9179940;19;20411;-63
2023/03/13 03:30:33;;;;;;;8.88;2.17;;;10.40;85.80;;;;;;9179822;19;20010;-63
2023/03/13 03:33:39;;;;;;;10.40;2.53;;;10.50;86.00;;;;;;9177578;19;20047;-62
2023/03/13 03:36:49;;;;;;;10.73;2.28;;;10.40;85.90;;;;;;9178594;19;20010;-63
2023/03/13 03:39:53;;;;;;;9.13;2.13;;;10.50;86.00;;;;;;9177697;19;20018;-63
2023/03/13 03:42:59;;;;;;;11.65;2.90;;;10.50;86.10;;;;;;9178747;19;20372;-63
2023/03/13 03:46:06;;;;;;;11.15;2.53;;;10.50;86.20;;;;;;9177525;19;20029;-63
2023/03/13 03:49:13;;;;;;;9.60;3.03;;;10.50;86.20;;;;;;9177219;19;20018;-63
2023/03/13 03:52:17;;;;;;;9.27;2.78;;;10.60;86.30;;;;;;9178404;19;20030;-63
2023/03/13 03:55:23;;;;;;;11.32;2.55;;;10.60;86.30;;;;;;9174531;19;20014;-62
2023/03/13 03:58:27;;;;;;;11.70;2.80;;;10.60;86.40;;;;;;9179313;19;20055;-62
2023/03/13 04:01:46;;;;;;;8.80;3.60;;;10.60;86.40;;;;;;9176641;19;20017;-63
2023/03/13 04:04:55;;;;;;;12.93;2.47;;;10.70;86.50;;;;;;9177522;19;20037;-63
2023/03/13 04:08:08;;;;;;;6.38;2.30;;;10.70;86.60;;;;;;9175939;19;20025;-63
2023/03/13 04:11:12;;;;;;;7.72;2.30;;;10.80;86.60;;;;;;9177441;19;20022;-63
2023/03/13 04:14:22;;;;;;;6.10;2.50;;;10.80;86.70;;;;;;9169328;19;20070;-63
2023/03/13 04:17:28;;;;;;;9.68;2.60;;;10.80;86.70;;;;;;9176816;19;20011;-63
2023/03/13 04:20:35;;;;;;;11.05;2.88;;;10.80;86.80;;;;;;9176843;19;20018;-63
2023/03/13 04:23:39;;;;;;;9.60;3.17;;;10.90;86.80;;;;;;9177082;19;20034;-62
2023/03/13 04:26:45;;;;;;;8.45;4.55;;;11.00;86.90;;;;;;9176351;19;20010;-63
2023/03/13 04:29:51;;;;;;;5.75;2.88;;;11.00;87.00;;;;;;9176805;19;20006;-63
2023/03/13 04:33:14;;;;;;;13.70;2.85;;;11.00;87.00;;;;;;9175523;19;20625;-63
2023/03/13 04:36:24;;;;;;;7.35;2.47;;;11.10;87.10;;;;;;9174446;19;20346;-62
2023/03/13 04:39:43;;;;;;;11.38;3.17;;;11.10;87.10;;;;;;9177927;19;20830;-63
2023/03/13 04:42:54;;;;;;;5.03;2.65;;;11.10;87.10;;;;;;9176212;19;20102;-62
2023/03/13 04:46:29;;;;;;;3.40;2.25;;;11.10;87.70;;;;;;9176123;19;20014;-63
2023/03/13 04:49:55;;;;;;;7.25;2.38;;;11.20;87.10;;;;;;9177950;19;20483;-62
2023/03/13 04:53:14;;;;;;;8.95;2.50;;;11.20;87.10;;;;;;9174632;19;20010;-62
2023/03/13 04:56:31;;;;;;;9.55;2.83;;;11.20;87.10;;;;;;9173000;19;20045;-63
2023/03/13 05:00:09;;;;;;;5.18;2.53;;;11.30;87.20;;;;;;9175852;19;20026;-62
2023/03/13 05:03:20;;;;;;;7.45;3.47;;;11.30;87.20;;;;;;9174399;19;20361;-63
2023/03/13 05:06:38;;;;;;;4.15;2.35;;;11.40;87.30;;;;;;9174409;19;20007;-62
2023/03/13 05:10:08;;;;;;;10.20;3.00;;;11.40;87.40;;;;;;9172500;19;20429;-63
2023/03/13 05:13:24;;;;;;;5.22;2.45;;;11.40;87.30;;;;;;9168486;19;20479;-63
2023/03/13 05:16:40;;;;;;;5.60;2.80;;;11.50;87.50;;;;;;9174734;19;20011;-62
2023/03/13 05:20:09;;;;;;;6.95;2.67;;;11.50;87.60;;;;;;9173969;19;20372;-63
2023/03/13 05:23:38;;;;;;;5.93;2.72;;;11.50;87.60;;;;;;9173445;19;20026;-63
2023/03/13 05:27:02;;;;;;;7.85;3.25;;;11.60;87.70;;;;;;9174169;19;20539;-62
2023/03/13 05:30:15;;;;;;;6.45;3.25;;;11.60;87.70;;;;;;9175453;19;20352;-63
2023/03/13 05:33:41;;;;;;;8.50;3.20;;;11.70;87.70;;;;;;9170601;19;20058;-63
2023/03/13 05:37:08;;;;;;;6.22;3.30;;;11.70;88.10;;;;;;9174847;19;20022;-63
2023/03/13 05:40:25;;;;;;;8.00;4.20;;;11.80;87.80;;;;;;9175140;19;20029;-62
2023/03/13 05:43:31;;;;;;;8.60;3.35;;;11.80;87.90;;;;;;9177758;19;20047;-63
2023/03/13 05:46:58;;;;;;;6.63;3.80;;;11.80;87.90;;;;;;9182890;19;20023;-63
2023/03/13 05:50:27;;;;;;;9.05;4.40;;;11.90;87.90;;;;;;9181510;19;20043;-63
2023/03/13 05:53:33;;;;;;;7.05;4.80;;;11.90;88.00;;;;;;9182738;19;20033;-63
2023/03/13 05:57:17;;;;;;;8.52;4.72;;;12.00;88.00;;;;;;9177361;19;20488;-62
2023/03/13 06:00:59;;;;;;;11.02;6.07;;;12.00;88.10;;;;;;9178215;19;20018;-63
2023/03/13 06:04:03;;;;;;;10.70;5.22;;;12.10;88.10;;;;;;9181829;19;20014;-63
2023/03/13 06:07:13;;;;;;;10.98;4.97;;;12.10;88.10;;;;;;9181095;19;20015;-63
2023/03/13 06:10:17;;;;;;;10.65;4.57;;;12.20;88.20;;;;;;9181024;19;20520;-63
2023/03/13 06:13:26;;;;;;;14.07;4.85;;;12.20;88.30;;;;;;9176022;19;20015;-63
2023/03/13 06:16:32;;;;;;;10.80;5.20;;;12.20;88.30;;;;;;9179575;19;20018;-63
2023/03/13 06:19:56;;;;;;;12.18;5.15;;;12.20;88.30;;;;;;9182439;19;20018;-63
2023/03/13 06:23:00;;;;;;;11.80;5.15;;;12.30;88.40;;;;;;9180806;19;20018;-63
2023/03/13 06:26:06;;;;;;;7.47;4.85;;;12.30;88.40;;;;;;9182075;19;20376;-63
2023/03/13 06:29:13;;;;;;;14.52;4.78;;;12.40;88.40;;;;;;9180258;19;20021;-63
2023/03/13 06:32:18;;;;;;;10.85;4.78;;;12.40;88.50;;;;;;9179424;19;20388;-62
2023/03/13 06:35:23;;;;;;;7.28;4.70;;;12.40;88.50;;;;;;9178640;19;20067;-63
2023/03/13 06:38:29;;;;;;;10.70;4.53;;;12.50;88.50;;;;;;9180512;19;20014;-63
2023/03/13 06:41:33;;;;;;;14.15;4.70;;;12.50;88.50;;;;;;9180933;19;20105;-63
2023/03/13 06:44:41;;;;;;;9.35;4.35;;;12.60;88.50;;;;;;9182161;19;20010;-63
2023/03/13 06:47:45;;;;;;;14.75;4.57;;;12.60;88.50;;;;;;9179883;19;20021;-63
2023/03/13 06:50:53;;;;;;;13.82;5.22;;;12.60;88.40;;;;;;9178250;19;20006;-63
2023/03/13 06:53:57;;;;;;;10.30;4.45;;;12.70;88.50;;;;;;9174600;19;20022;-63
2023/03/13 06:57:03;;;;;;;14.35;5.28;;;12.60;88.40;;;;;;9180129;19;20525;-63
2023/03/13 07:00:12;;;;;;;8.82;5.07;;;12.70;88.50;;;;;;9180126;19;20029;-63
2023/03/13 07:03:18;;;;;;;9.40;4.28;;;12.70;88.50;;;;;;9179540;19;20018;-63
2023/03/13 07:06:22;;;;;;;;;;;12.70;88.40;;;;;;9180523;19;20101;-63
2023/03/13 07:09:28;;;;;;;7.68;3.72;;;12.70;88.40;;;;;;9167517;19;19923;-63
2023/03/13 07:12:31;;;;;;;;;;;12.80;88.30;;;;;;9149829;19;20041;-63
2023/03/13 07:15:40;;;;;;;7.35;3.30;;;12.80;88.30;;;;;;9161191;19;19911;-63
2023/03/13 07:18:45;;;;;;;9.25;3.58;;;12.80;88.10;;;;;;9161123;19;20026;-63
2023/03/13 07:21:51;;;;;;;9.88;3.78;;;12.90;88.30;;;;;;9162844;19;20018;-63
2023/03/13 07:24:55;;;;;;;12.90;4.32;;;12.90;88.30;;;;;;9157937;19;20082;-63
2023/03/13 07:28:01;;;;;;;9.27;3.40;;;12.90;88.30;;;;;;9167489;19;20021;-63
2023/03/13 07:31:08;;;;;;;;;;;12.90;88.30;;;;;;9162057;19;20639;-63
2023/03/13 07:34:14;;;;;;;7.13;3.60;;;12.90;88.30;;;;;;9172439;19;19926;-63
2023/03/13 07:37:18;;;;;;;;;;;12.90;88.10;;;;;;9170978;19;20015;-63
2023/03/13 07:40:24;;;;;;;9.63;3.30;;;13.00;88.20;;;;;;9168907;19;19929;-63
2023/03/13 07:43:28;;;;;;;;;;;13.00;88.10;;;;;;9172176;19;20081;-63
2023/03/13 07:46:36;;;;;;;8.98;3.25;;;13.00;88.10;;;;;;9172847;19;19941;-63
2023/03/13 07:49:42;;;;;;;10.20;3.58;;;13.00;88.00;;;;;;9172129;19;20487;-63
2023/03/13 07:52:48;;;;;;;10.98;3.03;;;13.00;88.10;;;;;;9177437;19;20015;-63
2023/03/13 07:55:53;;;;;;;;;;;13.10;88.20;;;;;;9172040;19;20503;-64
2023/03/13 07:58:59;;;;;;;8.20;2.70;;;13.10;88.20;;;;;;9176710;19;19922;-63
2023/03/13 08:02:05;;;;;;;7.35;2.95;;;13.10;88.00;;;;;;9175568;19;20083;-63
2023/03/13 08:05:11;;;;;;;6.80;2.85;;;13.10;88.10;;;;;;9176028;19;20007;-63
2023/03/13 08:08:15;;;;;;;11.38;3.40;;;13.10;88.10;;;;;;9175009;19;20384;-63
2023/03/13 08:11:23;;;;;;;8.27;3.15;;;13.20;88.20;;;;;;9177462;19;20367;-63
2023/03/13 08:14:27;;;;;;;12.68;2.90;;;13.20;88.10;;;;;;9172212;19;20047;-63
2023/03/13 08:17:35;;;;;;;12.15;2.65;;;13.30;88.10;;;;;;9173604;19;20074;-63
2023/03/13 08:20:40;;;;;;;9.82;3.00;;;13.30;88.00;;;;;;9168429;19;20014;-63
2023/03/13 08:23:46;;;;;;;6.78;2.55;;;13.30;88.60;;;;;;9167667;19;20015;-64
2023/03/13 08:26:50;;;;;;;9.30;2.42;;;13.30;87.90;;;;;;9177761;19;20017;-63
2023/03/13 08:29:56;;;;;;;9.73;2.08;;;13.40;88.00;;;;;;9177971;19;20015;-64
2023/03/13 08:33:02;;;;;;;12.65;2.38;;;13.40;87.90;;;;;;9178126;19;20505;-63
2023/03/13 08:36:12;;;;;;;18.98;2.70;;;13.40;87.90;;;;;;9172499;19;20017;-65
2023/03/13 08:39:18;;;;;;;11.55;2.40;;;13.50;87.90;;;;;;9177779;19;20019;-63
2023/03/13 08:42:24;;;;;;;8.68;2.33;;;13.50;87.70;;;;;;9177774;19;20022;-64
2023/03/13 08:45:28;;;;;;;7.50;2.30;;;13.50;87.70;;;;;;9177221;19;20090;-63
2023/03/13 08:48:36;;;;;;;9.13;2.38;;;13.60;87.70;;;;;;9177430;19;20013;-63
2023/03/13 08:51:40;;;;;;;5.53;2.47;;;13.60;87.70;;;;;;9177384;19;20093;-64
2023/03/13 08:54:46;;;;;;;7.25;2.20;;;13.60;87.70;;;;;;9173538;19;20495;-63
2023/03/13 08:57:52;;;;;;;10.18;2.58;;;13.70;87.80;;;;;;9175600;19;20431;-64
2023/03/13 09:01:03;;;;;;;8.63;2.97;;;13.70;87.80;;;;;;9166043;19;20098;-64
2023/03/13 09:04:09;;;;;;;7.68;2.50;;;13.70;87.70;;;;;;9170497;19;20564;-63
2023/03/13 09:07:15;;;;;;;11.43;2.65;;;13.70;87.60;;;;;;9167145;19;20015;-63
2023/03/13 09:10:19;;;;;;;6.43;2.58;;;13.70;87.60;;;;;;9165829;19;20034;-63
2023/03/13 09:13:26;;;;;;;5.57;2.05;;;13.70;87.60;;;;;;9164865;19;20022;-63
2023/03/13 09:16:33;;;;;;;8.23;2.28;;;13.80;87.60;;;;;;9167551;19;20019;-64
2023/03/13 09:19:41;;;;;;;6.75;2.40;;;13.80;87.60;;;;;;9175928;19;20015;-63
2023/03/13 09:23:01;;;;;;;9.65;2.10;;;13.80;87.60;;;;;;9176547;19;20404;-64
2023/03/13 09:26:07;;;;;;;5.68;2.67;;;13.80;87.60;;;;;;9173817;19;20014;-63
2023/03/13 09:29:11;;;;;;;7.13;1.92;;;13.80;87.60;;;;;;9173928;19;20021;-64
2023/03/13 09:32:19;;;;;;;6.47;1.67;;;13.80;87.60;;;;;;9177172;19;20015;-64
2023/03/13 09:35:25;;;;;;;6.82;2.10;;;13.80;87.60;;;;;;9172849;19;20015;-63
2023/03/13 09:38:31;;;;;;;6.55;1.77;;;13.90;87.70;;;;;;9174315;19;20014;-63
2023/03/13 09:41:40;;;;;;;6.70;1.70;;;13.90;87.60;;;;;;9174802;19;20649;-64
2023/03/13 09:44:51;;;;;;;4.38;1.60;;;14.00;87.60;;;;;;9175269;19;20006;-64
2023/03/13 09:47:59;;;;;;;8.27;1.60;;;14.00;87.50;;;;;;9174184;19;20014;-64
2023/03/13 09:51:16;;;;;;;6.53;1.90;;;14.00;87.40;;;;;;9178735;19;20677;-64
2023/03/13 09:54:27;;;;;;;10.02;1.50;;;14.10;87.30;;;;;;9182359;19;20061;-64
2023/03/13 09:57:35;;;;;;;3.45;1.40;;;14.10;87.20;;;;;;9183328;19;20026;-64
2023/03/13 10:00:41;;;;;;;8.88;1.17;;;14.20;87.10;;;;;;9180866;19;20027;-64
2023/03/13 10:03:59;;;;;;;7.03;1.30;;;14.20;87.00;;;;;;9181917;19;20021;-64
2023/03/13 10:07:06;;;;;;;5.22;1.38;;;14.20;86.80;;;;;;9181723;19;20497;-64
2023/03/13 10:10:17;;;;;;;7.75;1.60;;;14.30;86.70;;;;;;9181513;19;20529;-64
2023/03/13 10:13:28;;;;;;;7.47;1.60;;;14.30;86.60;;;;;;9176245;19;20492;-64
2023/03/13 10:16:39;;;;;;;6.10;1.17;;;14.30;86.40;;;;;;9179218;19;20110;-64
2023/03/13 10:19:46;;;;;;;4.95;1.33;;;14.40;86.40;;;;;;9181090;19;20018;-64
2023/03/13 10:22:59;;;;;;;4.38;1.30;;;14.50;86.40;;;;;;9182059;19;20503;-64
2023/03/13 10:26:03;;;;;;;2.88;1.17;;;14.50;86.10;;;;;;9182616;19;20446;-64
2023/03/13 10:29:23;;;;;;;11.45;2.35;;;14.60;86.10;;;;;;9177791;19;20033;-62
2023/03/13 10:32:28;;;;;;;5.63;1.50;;;14.70;85.90;;;;;;9181154;19;20014;-64
2023/03/13 10:35:36;;;;;;;8.02;2.50;;;14.70;85.80;;;;;;9178533;19;20023;-64
2023/03/13 10:38:53;;;;;;;4.43;1.20;;;14.80;85.70;;;;;;9178696;19;20046;-62
2023/03/13 10:42:09;;;;;;;4.63;1.13;;;14.80;85.50;;;;;;9180444;19;20014;-62
2023/03/13 10:45:16;;;;;;;;;;;14.90;85.50;;;;;;9180964;19;20043;-63
2023/03/13 10:48:27;;;;;;;5.18;1.15;;;14.90;85.40;;;;;;9181600;19;19929;-63
2023/03/13 10:51:37;;;;;;;3.03;1.30;;;15.00;85.40;;;;;;9181075;19;20019;-63
2023/03/13 10:54:46;;;;;;;7.45;1.45;;;15.00;85.20;;;;;;9181019;19;20014;-62
2023/03/13 10:57:59;;;;;;;3.08;1.05;;;15.00;85.00;;;;;;9179634;19;20031;-62
2023/03/13 11:01:18;;;;;;;5.93;1.67;;;15.10;84.90;;;;;;9181381;19;20019;-62
2023/03/13 11:04:31;;;;;;;5.43;1.60;;;15.20;84.80;;;;;;9181780;19;20010;-63
2023/03/13 11:07:39;;;;;;;7.30;1.40;;;15.20;84.70;;;;;;9178989;19;20022;-63
2023/03/13 11:10:58;;;;;;;6.47;1.55;;;15.30;84.80;;;;;;9178592;19;20014;-62
2023/03/13 11:14:16;;;;;;;3.78;1.13;;;15.30;84.60;;;;;;9166272;19;20516;-63
2023/03/13 11:17:30;;;;;;;5.07;1.50;;;15.40;84.60;;;;;;9172176;19;20017;-63
2023/03/13 11:20:39;;;;;;;7.50;1.63;;;15.50;84.50;;;;;;9172445;19;20010;-63
2023/03/13 11:23:51;;;;;;;9.15;1.48;;;15.60;84.50;;;;;;9168580;19;20533;-63
2023/03/13 11:27:09;;;;;;;5.07;1.48;;;15.70;84.40;;;;;;9169461;19;20886;-63
2023/03/13 11:30:22;;;;;;;5.97;1.17;;;15.70;84.10;;;;;;9167199;19;20026;-63
2023/03/13 11:33:39;;;;;;;4.40;1.33;;;15.90;84.00;;;;;;9162943;19;20019;-63
2023/03/13 11:36:52;;;;;;;3.22;1.33;;;16.00;83.70;;;;;;9161396;19;20018;-64
2023/03/13 11:40:11;;;;;;;6.05;1.48;;;16.00;83.50;;;;;;9166663;19;20026;-63
2023/03/13 11:43:33;;;;;;;6.55;1.58;;;16.10;83.40;;;;;;9164126;19;20018;-63
2023/03/13 11:46:49;;;;;;;4.50;1.40;;;16.20;83.10;;;;;;9166662;19;20030;-63
2023/03/13 11:50:05;;;;;;;6.90;1.50;;;16.30;83.20;;;;;;9167448;19;20014;-64
2023/03/13 11:53:27;;;;;;;6.35;1.75;;;16.40;83.00;;;;;;9179504;19;20023;-64
2023/03/13 11:56:36;;;;;;;7.38;1.88;;;16.50;82.80;;;;;;9175738;19;20018;-64
2023/03/13 11:59:52;;;;;;;4.97;1.70;;;16.70;82.80;;;;;;9180202;19;20462;-64
2023/03/13 12:02:58;;;;;;;;;;;16.80;82.50;;;;;;9180350;19;20386;-65
2023/03/13 12:06:07;;;;;;;8.88;1.88;;;16.90;82.50;;;;;;9175814;19;19915;-65
2023/03/13 12:09:27;;;;;;;2.72;1.27;;;17.00;82.40;;;;;;9176605;19;20011;-64
2023/03/13 12:12:46;;;;;;;8.20;1.45;;;17.10;82.10;;;;;;9172865;19;20109;-64
2023/03/13 12:15:56;;;;;;;3.67;1.40;;;17.20;81.70;;;;;;9175982;19;20018;-64
2023/03/13 12:19:02;;;;;;;4.03;1.30;;;17.20;81.50;;;;;;9178780;19;20015;-64
2023/03/13 12:22:16;;;;;;;5.15;1.20;;;17.30;81.30;;;;;;9176702;19;20014;-64
2023/03/13 12:25:27;;;;;;;3.45;1.05;;;17.40;80.90;;;;;;9175734;19;20018;-65
2023/03/13 12:28:38;;;;;;;8.80;1.50;;;17.40;80.90;;;;;;9178707;19;20035;-64
2023/03/13 12:31:51;;;;;;;3.60;0.90;;;17.50;80.70;;;;;;9178248;19;20351;-64
2023/03/13 12:35:02;;;;;;;7.90;1.08;;;17.50;80.50;;;;;;9177099;19;20020;-65
2023/03/13 12:38:18;;;;;;;6.05;1.38;;;17.60;80.30;;;;;;9176657;19;20808;-64
2023/03/13 12:41:26;;;;;;;3.13;1.20;;;17.60;80.70;;;;;;9178305;19;20018;-65
2023/03/13 12:44:33;;;;;;;1.92;1.10;;;17.70;80.00;;;;;;9177997;19;20352;-65
2023/03/13 12:48:07;;;;;;;4.50;1.38;;;17.60;79.80;;;;;;9177556;19;20020;-65
2023/03/13 12:51:28;;;;;;;2.03;1.20;;;17.60;79.40;;;;;;9177368;19;20025;-65
2023/03/13 12:54:57;;;;;;;3.38;1.15;;;17.70;79.50;;;;;;9175721;19;20025;-65
2023/03/13 12:58:19;;;;;;;4.28;1.67;;;17.70;79.10;;;;;;9177069;19;20482;-64
2023/03/13 13:01:36;;;;;;;5.20;1.23;;;17.70;79.10;;;;;;9174313;19;20070;-64
2023/03/13 13:04:47;;;;;;;2.92;1.02;;;17.70;78.80;;;;;;9176626;19;20490;-64
2023/03/13 13:07:56;;;;;;;3.05;1.00;;;17.70;78.90;;;;;;9176278;19;20014;-64
2023/03/13 13:11:32;;;;;;;3.22;1.48;;;17.70;78.70;;;;;;9175698;19;20010;-64
2023/03/13 13:15:06;;;;;;;3.67;1.10;;;17.70;78.30;;;;;;9167161;19;20027;-65
2023/03/13 13:18:25;;;;;;;4.10;1.00;;;17.70;78.30;;;;;;9175740;19;20102;-64
2023/03/13 13:21:32;;;;;;;3.25;1.10;;;17.70;78.40;;;;;;9175600;19;20022;-64
2023/03/13 13:24:42;;;;;;;7.05;1.30;;;17.60;78.40;;;;;;9176228;19;20011;-64
2023/03/13 13:27:49;;;;;;;6.03;1.48;;;17.60;78.10;;;;;;9175018;19;20015;-65
2023/03/13 13:30:57;;;;;;;2.25;1.17;;;17.60;77.80;;;;;;9175093;19;20007;-65
2023/03/13 13:34:02;;;;;;;3.08;1.25;;;17.50;77.70;;;;;;9172741;19;20021;-64
2023/03/13 13:37:27;;;;;;;3.47;1.30;;;17.50;77.60;;;;;;9168526;19;20051;-64
2023/03/13 13:40:33;;;;;;;3.92;1.20;;;17.60;77.10;;;;;;9172843;19;20336;-64
2023/03/13 13:43:40;;;;;;;6.40;1.00;;;17.50;77.40;;;;;;9173135;19;20015;-65
2023/03/13 13:46:46;;;;;;;7.43;2.25;;;17.50;78.00;;;;;;9173013;19;20018;-65
2023/03/13 13:49:55;;;;;;;5.13;1.85;;;17.50;77.20;;;;;;9174807;19;20019;-65
2023/03/13 13:53:32;;;;;;;3.70;0.98;;;17.50;77.10;;;;;;9175026;19;20064;-65
2023/03/13 13:56:43;;;;;;;4.63;1.10;;;17.60;76.60;;;;;;9171769;19;20014;-65
2023/03/13 13:59:51;;;;;;;6.88;1.08;;;17.60;76.80;;;;;;9171163;19;20015;-65
2023/03/13 14:02:58;;;;;;;6.40;1.48;;;17.60;77.30;;;;;;9175450;19;20030;-64
2023/03/13 14:06:06;;;;;;;4.45;0.95;;;17.60;76.50;;;;;;9183155;19;20017;-65
2023/03/13 14:09:23;;;;;;;7.68;1.20;;;17.70;76.40;;;;;;9170464;19;20007;-65
2023/03/13 14:12:33;;;;;;;5.50;1.40;;;17.70;76.10;;;;;;9172162;19;20011;-65
2023/03/13 14:15:43;;;;;;;3.72;0.80;;;17.70;76.00;;;;;;9172354;19;20031;-65
2023/03/13 14:18:49;;;;;;;3.42;0.90;;;17.70;75.90;;;;;;9172837;19;20353;-65
2023/03/13 14:22:00;;;;;;;2.63;1.10;;;17.70;75.90;;;;;;9175551;19;20015;-65
2023/03/13 14:25:07;;;;;;;5.35;1.67;;;17.70;75.60;;;;;;9182769;19;20051;-65
2023/03/13 14:28:24;;;;;;;3.97;1.20;;;17.70;75.70;;;;;;9182275;19;20098;-65
2023/03/13 14:31:31;;;;;;;5.53;1.58;;;17.70;75.50;;;;;;9179055;19;20006;-65
2023/03/13 14:34:37;;;;;;;3.05;1.13;;;17.70;75.60;;;;;;9174589;19;20021;-65
2023/03/13 14:37:44;;;;;;;4.70;1.55;;;17.70;75.50;;;;;;9178281;19;20384;-65
2023/03/13 14:40:54;;;;;;;4.22;1.35;;;17.60;75.40;;;;;;9175517;19;20018;-66
2023/03/13 14:44:22;;;;;;;3.55;0.90;;;17.60;75.30;;;;;;9175557;19;20505;-65
2023/03/13 14:47:30;;;;;;;7.10;1.08;;;17.70;75.30;;;;;;9174744;19;20010;-64
2023/03/13 14:50:36;;;;;;;3.67;0.95;;;17.70;75.10;;;;;;9177785;19;20033;-65
2023/03/13 14:53:54;;;;;;;4.63;1.00;;;17.70;74.90;;;;;;9179949;19;20030;-65
2023/03/13 14:57:14;;;;;;;4.03;1.02;;;17.70;74.80;;;;;;9174342;19;20081;-65
2023/03/13 15:00:35;;;;;;;3.50;1.40;;;17.70;74.30;;;;;;9177029;19;20006;-65
2023/03/13 15:03:45;;;;;;;4.75;1.02;;;17.70;74.20;;;;;;9176712;19;20011;-65
2023/03/13 15:07:03;;;;;;;7.22;1.75;;;17.70;74.10;;;;;;9173992;19;20022;-65
2023/03/13 15:10:21;;;;;;;8.40;1.48;;;17.70;73.70;;;;;;9174951;19;20019;-65
2023/03/13 15:13:35;;;;;;;8.68;1.58;;;17.70;73.50;;;;;;9171249;19;20046;-66
2023/03/13 15:16:39;;;;;;;9.90;1.40;;;17.70;73.50;;;;;;9172696;19;20084;-65
2023/03/13 15:19:49;;;;;;;7.25;1.95;;;17.70;73.60;;;;;;9174577;19;20372;-65
2023/03/13 15:22:53;;;;;;;5.68;1.17;;;17.80;73.30;;;;;;9176764;19;20039;-64
2023/03/13 15:25:59;;;;;;;8.35;1.42;;;17.70;73.20;;;;;;9179386;19;20590;-65
2023/03/13 15:29:05;;;;;;;;;;;17.70;73.10;;;;;;9182386;19;20006;-66
2023/03/13 15:32:20;;;;;;;5.68;1.02;;;17.70;73.40;;;;;;9175298;19;19922;-65
2023/03/13 15:35:28;;;;;;;9.15;1.58;;;17.70;73.40;;;;;;9174831;19;20471;-66
2023/03/13 15:38:34;;;;;;;8.20;1.67;;;17.70;73.30;;;;;;9172021;19;20013;-66
2023/03/13 15:41:38;;;;;;;7.97;1.48;;;17.70;73.20;;;;;;9179333;19;20015;-66
2023/03/13 15:44:46;;;;;;;8.48;1.90;;;17.70;73.10;;;;;;9174557;19;20018;-67
2023/03/13 15:47:51;;;;;;;4.63;1.70;;;17.60;72.90;;;;;;9177098;19;20025;-66
2023/03/13 15:50:59;;;;;;;7.85;1.10;;;17.60;72.80;;;;;;9174874;19;20021;-66
2023/03/13 15:54:03;;;;;;;5.55;1.70;;;17.60;73.40;;;;;;9174934;19;20018;-67
2023/03/13 15:57:12;;;;;;;3.78;1.42;;;17.60;72.70;;;;;;9173117;19;20018;-66
2023/03/13 16:00:21;;;;;;;6.45;1.67;;;17.50;72.50;;;;;;9176915;19;20384;-66
2023/03/13 16:03:28;;;;;;;9.20;1.80;;;17.50;72.40;;;;;;9176523;19;20006;-66
2023/03/13 16:06:33;;;;;;;8.35;2.15;;;17.50;72.40;;;;;;9169338;19;20601;-66
2023/03/13 16:09:39;;;;;;;7.28;1.52;;;17.40;72.40;;;;;;9172077;19;20026;-72
2023/03/13 16:12:43;;;;;;;6.47;1.77;;;17.40;72.30;;;;;;9166889;19;20492;-72
2023/03/13 16:15:51;;;;;;;10.38;1.70;;;17.30;72.30;;;;;;9167874;19;20013;-72
2023/03/13 16:18:56;;;;;;;12.57;2.15;;;17.30;72.20;;;;;;9165624;19;20436;-71
2023/03/13 16:22:02;;;;;;;9.65;2.00;;;17.20;72.10;;;;;;9163097;19;20014;-72
2023/03/13 16:25:08;;;;;;;12.50;1.92;;;17.20;72.10;;;;;;9161079;19;20085;-72
2023/03/13 16:28:15;;;;;;;6.82;1.70;;;17.20;72.10;;;;;;9159456;19;20019;-69
2023/03/13 16:31:23;;;;;;;10.15;1.98;;;17.10;72.10;;;;;;9162556;19;20395;-69